Time;durP1;ratioP1;P1;durP2;ratioP2;P2;SDS_P1;SDS_P2;PMS_P1;PMS_P2;Temp;Humidity;BMP_temperature;BMP_pressure;BME280_temperature;BME280_humidity;BME280_pressure;Samples;Min_cycle;Max_cycle;Signal;HPM_P1;HPM_P2
2023/07/08 00:00:28;;;;;;;5.38;3.30;;;;;;;;;;5084643;28;20027;-83
2023/07/08 00:02:54;;;;;;;4.80;3.47;;;;;;;;;;5074226;28;20032;-84
2023/07/08 00:05:21;;;;;;;4.05;3.25;;;;;;;;;;5070529;28;20043;-86
2023/07/08 00:07:47;;;;;;;6.25;4.13;;;;;;;;;;5072602;28;20028;-87
2023/07/08 00:10:30;;;;;;;4.80;3.45;;;;;;;;;;5088340;28;20024;-84
2023/07/08 00:12:58;;;;;;;4.95;4.05;;;;;;;;;;5069418;28;20809;-85
2023/07/08 00:15:30;;;;;;;5.95;4.47;;;;;;;;;;5065485;28;20032;-84
2023/07/08 00:17:56;;;;;;;5.07;3.28;;;;;;;;;;5087074;28;20037;-86
2023/07/08 00:20:47;;;;;;;5.10;3.80;;;;;;;;;;5090245;28;20019;-85
2023/07/08 00:23:13;;;;;;;3.55;2.45;;;;;;;;;;5093048;28;20027;-85
2023/07/08 00:25:39;;;;;;;5.03;3.90;;;;;;;;;;5069174;28;20115;-83
2023/07/08 00:28:16;;;;;;;5.50;4.25;;;;;;;;;;5076000;28;20055;-84
2023/07/08 00:30:42;;;;;;;3.28;2.35;;;;;;;;;;5069446;28;20035;-83
2023/07/08 00:33:07;;;;;;;6.40;4.00;;;;;;;;;;5086492;28;20028;-86
2023/07/08 00:35:38;;;;;;;5.80;3.08;;;;;;;;;;5065042;28;20483;-82
2023/07/08 00:38:29;;;;;;;4.57;2.38;;;;;;;;;;5074056;28;20020;-85
2023/07/08 00:41:09;;;;;;;4.03;2.75;;;;;;;;;;5063837;28;20028;-83
2023/07/08 00:43:50;;;;;;;6.15;3.92;;;;;;;;;;5066879;28;20052;-86
2023/07/08 00:46:31;;;;;;;4.55;3.33;;;;;;;;;;5069949;28;20389;-84
2023/07/08 00:48:59;;;;;;;5.13;3.53;;;;;;;;;;5063254;28;20039;-84
2023/07/08 00:51:24;;;;;;;4.97;3.08;;;;;;;;;;5086205;28;20113;-84
2023/07/08 00:53:50;;;;;;;7.30;3.60;;;;;;;;;;5082392;28;20032;-84
2023/07/08 00:56:19;;;;;;;3.03;2.67;;;;;;;;;;5074175;28;20054;-84
2023/07/08 00:58:58;;;;;;;4.78;3.15;;;;;;;;;;5067022;28;20447;-82
2023/07/08 01:01:25;;;;;;;3.93;2.47;;;;;;;;;;5081348;28;21567;-81
2023/07/08 01:04:01;;;;;;;4.85;3.80;;;;;;;;;;5091423;28;20459;-81
2023/07/08 01:06:31;;;;;;;4.32;3.05;;;;;;;;;;5091164;28;20032;-82
2023/07/08 01:08:58;;;;;;;5.05;3.63;;;;;;;;;;5075372;28;20466;-83
2023/07/08 01:11:24;;;;;;;4.78;3.67;;;;;;;;;;5071626;28;20070;-83
2023/07/08 01:13:50;;;;;;;3.60;3.08;;;;;;;;;;5061858;28;20828;-82
2023/07/08 01:16:16;;;;;;;6.43;3.78;;;;;;;;;;5064793;28;20028;-82
2023/07/08 01:18:43;;;;;;;5.22;3.38;;;;;;;;;;5082996;28;20509;-81
2023/07/08 01:21:34;;;;;;;3.97;2.90;;;;;;;;;;5063563;28;20085;-82
2023/07/08 01:24:03;;;;;;;5.80;3.75;;;;;;;;;;5092923;28;20473;-84
2023/07/08 01:26:31;;;;;;;6.07;3.85;;;;;;;;;;5084369;28;20102;-83
2023/07/08 01:28:57;;;;;;;4.45;3.33;;;;;;;;;;5058455;28;20048;-83
2023/07/08 01:31:23;;;;;;;3.92;3.38;;;;;;;;;;5073985;28;20514;-84
2023/07/08 01:33:50;;;;;;;4.75;3.42;;;;;;;;;;5085229;28;20035;-82
2023/07/08 01:36:16;;;;;;;6.05;4.05;;;;;;;;;;5083648;28;20512;-83
2023/07/08 01:38:43;;;;;;;3.08;2.72;;;;;;;;;;5088177;28;20032;-83
2023/07/08 01:41:13;;;;;;;4.47;3.42;;;;;;;;;;5070832;28;20024;-84
2023/07/08 01:43:38;;;;;;;6.45;3.30;;;;;;;;;;5087434;28;20023;-82
2023/07/08 01:46:12;;;;;;;5.38;3.20;;;;;;;;;;5069038;28;20051;-83
2023/07/08 01:48:41;;;;;;;4.93;3.40;;;;;;;;;;5083509;28;20442;-82
2023/07/08 01:51:07;;;;;;;5.65;3.65;;;;;;;;;;5069327;28;20028;-81
2023/07/08 01:53:40;;;;;;;4.20;3.35;;;;;;;;;;5059316;28;20170;-84
2023/07/08 01:56:06;;;;;;;5.43;4.00;;;;;;;;;;5083246;28;20501;-82
2023/07/08 01:58:32;;;;;;;6.25;3.25;;;;;;;;;;5088326;28;20031;-83
2023/07/08 02:00:58;;;;;;;3.40;2.30;;;;;;;;;;5073877;28;20032;-84
2023/07/08 02:03:24;;;;;;;2.08;1.35;;;;;;;;;;5067436;28;20024;-83
2023/07/08 02:05:50;;;;;;;5.55;3.40;;;;;;;;;;5069480;28;20020;-85
2023/07/08 02:08:15;;;;;;;3.25;2.30;;;;;;;;;;5081672;28;20028;-82
2023/07/08 02:10:42;;;;;;;6.55;3.63;;;;;;;;;;5066369;28;20110;-83
2023/07/08 02:13:08;;;;;;;5.68;2.88;;;;;;;;;;5084717;28;20051;-82
2023/07/08 02:15:34;;;;;;;1.65;1.27;;;;;;;;;;5085351;28;20472;-83
2023/07/08 02:18:00;;;;;;;2.75;2.20;;;;;;;;;;5066573;28;20052;-84
2023/07/08 02:20:26;;;;;;;4.63;2.67;;;;;;;;;;5081694;28;20035;-86
2023/07/08 02:22:51;;;;;;;5.50;4.05;;;;;;;;;;5081438;28;20040;-83
2023/07/08 02:25:17;;;;;;;3.45;2.50;;;;;;;;;;5064899;28;20024;-84
2023/07/08 02:27:42;;;;;;;4.32;2.65;;;;;;;;;;5080711;28;20395;-85
2023/07/08 02:30:09;;;;;;;2.65;2.08;;;;;;;;;;5057328;28;20029;-84
2023/07/08 02:32:38;;;;;;;3.22;2.55;;;;;;;;;;5082328;28;20062;-84
2023/07/08 02:35:08;;;;;;;2.55;1.85;;;;;;;;;;5059772;28;20032;-83
2023/07/08 02:37:34;;;;;;;2.15;1.23;;;;;;;;;;5090934;28;20487;-81
2023/07/08 02:40:00;;;;;;;4.43;2.70;;;;;;;;;;5071467;28;20117;-83
2023/07/08 02:42:26;;;;;;;3.00;2.10;;;;;;;;;;5071243;28;20028;-85
2023/07/08 02:44:51;;;;;;;3.38;2.22;;;;;;;;;;5084857;28;20051;-86
2023/07/08 02:47:17;;;;;;;2.85;2.05;;;;;;;;;;5078122;28;20135;-81
2023/07/08 02:49:42;;;;;;;5.80;2.78;;;;;;;;;;5081253;28;20020;-84
2023/07/08 02:52:08;;;;;;;2.63;1.50;;;;;;;;;;5081682;28;20024;-86
2023/07/08 02:54:33;;;;;;;2.40;1.95;;;;;;;;;;5084911;28;20050;-83
2023/07/08 02:57:00;;;;;;;3.03;2.30;;;;;;;;;;5085483;28;20079;-83
2023/07/08 02:59:27;;;;;;;3.17;2.42;;;;;;;;;;5089113;28;20024;-82
2023/07/08 03:01:53;;;;;;;3.78;2.28;;;;;;;;;;5090823;28;20028;-82
2023/07/08 03:04:21;;;;;;;2.90;1.95;;;;;;;;;;5085411;28;20032;-82
2023/07/08 03:06:49;;;;;;;5.45;2.30;;;;;;;;;;5086423;28;20039;-83
2023/07/08 03:09:15;;;;;;;2.33;2.00;;;;;;;;;;5086738;28;20025;-85
2023/07/08 03:11:40;;;;;;;3.35;2.40;;;;;;;;;;5069186;28;20024;-83
2023/07/08 03:14:06;;;;;;;2.28;1.95;;;;;;;;;;5080710;28;20567;-84
2023/07/08 03:16:32;;;;;;;2.63;2.20;;;;;;;;;;5088758;28;20032;-84
2023/07/08 03:18:57;;;;;;;3.13;2.38;;;;;;;;;;5079490;28;20379;-84
2023/07/08 03:21:23;;;;;;;3.10;2.42;;;;;;;;;;5072218;28;20111;-84
2023/07/08 03:23:50;;;;;;;2.13;1.73;;;;;;;;;;5075688;28;20464;-83
2023/07/08 03:26:21;;;;;;;1.92;1.75;;;;;;;;;;5078314;28;20024;-82
2023/07/08 03:28:48;;;;;;;4.95;2.67;;;;;;;;;;5081881;28;20029;-85
2023/07/08 03:31:13;;;;;;;2.10;1.90;;;;;;;;;;5086230;28;20024;-83
2023/07/08 03:33:39;;;;;;;5.07;2.53;;;;;;;;;;5091606;28;20494;-81
2023/07/08 03:36:22;;;;;;;5.45;3.50;;;;;;;;;;5067617;28;20030;-83
2023/07/08 03:38:52;;;;;;;2.58;1.80;;;;;;;;;;5085679;28;20031;-83
2023/07/08 03:41:18;;;;;;;2.53;2.33;;;;;;;;;;5064579;28;20099;-83
2023/07/08 03:43:43;;;;;;;3.00;1.80;;;;;;;;;;5071188;28;20024;-84
2023/07/08 03:46:14;;;;;;;3.13;1.98;;;;;;;;;;5091027;28;20044;-84
2023/07/08 03:48:39;;;;;;;2.17;1.98;;;;;;;;;;5068681;28;20031;-83
2023/07/08 03:51:21;;;;;;;2.67;1.65;;;;;;;;;;5086744;28;20043;-82
2023/07/08 03:53:47;;;;;;;2.70;1.67;;;;;;;;;;5087522;28;20035;-84
2023/07/08 03:56:15;;;;;;;1.50;1.25;;;;;;;;;;5072813;28;20032;-83
2023/07/08 03:58:41;;;;;;;1.25;1.15;;;;;;;;;;5084886;28;20028;-82
2023/07/08 04:01:15;;;;;;;1.27;1.15;;;;;;;;;;5091504;28;20024;-83
2023/07/08 04:03:40;;;;;;;2.65;2.40;;;;;;;;;;5070566;28;20028;-81
2023/07/08 04:06:06;;;;;;;1.60;1.40;;;;;;;;;;5073356;28;20545;-83
2023/07/08 04:08:31;;;;;;;2.67;2.00;;;;;;;;;;5090888;28;20472;-82
2023/07/08 04:10:57;;;;;;;2.80;1.92;;;;;;;;;;5090788;28;20032;-84
2023/07/08 04:13:22;;;;;;;2.38;1.95;;;;;;;;;;5088521;28;20045;-83
2023/07/08 04:15:55;;;;;;;1.75;1.48;;;;;;;;;;5093750;28;20019;-83
2023/07/08 04:18:20;;;;;;;3.80;1.85;;;;;;;;;;5079012;28;20023;-80
2023/07/08 04:20:52;;;;;;;3.00;1.85;;;;;;;;;;5089418;28;20030;-85
2023/07/08 04:23:20;;;;;;;2.47;1.50;;;;;;;;;;5076364;28;20032;-85
2023/07/08 04:25:52;;;;;;;1.80;1.45;;;;;;;;;;5080135;28;20450;-82
2023/07/08 04:28:18;;;;;;;1.85;1.50;;;;;;;;;;5095120;28;20024;-84
2023/07/08 04:30:43;;;;;;;2.47;1.77;;;;;;;;;;5093960;28;20078;-84
2023/07/08 04:33:13;;;;;;;3.75;2.42;;;;;;;;;;5081411;28;20467;-86
2023/07/08 04:35:39;;;;;;;4.43;2.38;;;;;;;;;;5071229;28;20027;-86
2023/07/08 04:38:09;;;;;;;1.98;1.15;;;;;;;;;;5087930;28;20028;-85
2023/07/08 04:40:39;;;;;;;1.98;1.70;;;;;;;;;;5083132;28;20024;-85
2023/07/08 04:43:10;;;;;;;3.13;2.10;;;;;;;;;;5075829;28;20024;-88
2023/07/08 04:45:37;;;;;;;1.25;1.00;;;;;;;;;;5091510;28;20403;-89
2023/07/08 04:48:12;;;;;;;1.30;1.20;;;;;;;;;;5085452;28;20484;-86
2023/07/08 04:50:41;;;;;;;3.25;2.33;;;;;;;;;;5088182;28;20043;-82
2023/07/08 04:53:06;;;;;;;3.03;2.15;;;;;;;;;;5072528;28;20490;-88
2023/07/08 04:55:32;;;;;;;2.95;2.63;;;;;;;;;;5090085;28;20059;-84
2023/07/08 04:57:57;;;;;;;2.17;1.98;;;;;;;;;;5081159;28;20032;-84
2023/07/08 05:00:23;;;;;;;1.98;1.15;;;;;;;;;;5077416;28;20024;-83
2023/07/08 05:02:49;;;;;;;3.47;2.65;;;;;;;;;;5091977;28;20032;-85
2023/07/08 05:05:14;;;;;;;12.00;1.77;;;;;;;;;;5084136;28;20020;-85
2023/07/08 05:07:39;;;;;;;1.90;1.58;;;;;;;;;;5064557;28;20024;-85
2023/07/08 05:10:05;;;;;;;2.00;1.45;;;;;;;;;;5088182;28;20095;-84
2023/07/08 05:12:31;;;;;;;6.45;1.48;;;;;;;;;;5089920;28;20093;-85
2023/07/08 05:14:56;;;;;;;1.30;0.98;;;;;;;;;;5075071;28;20076;-84
2023/07/08 05:17:22;;;;;;;2.33;1.42;;;;;;;;;;5082695;28;20047;-84
2023/07/08 05:19:50;;;;;;;2.45;1.70;;;;;;;;;;5095207;28;20471;-84
2023/07/08 05:22:18;;;;;;;2.20;1.02;;;;;;;;;;5065291;28;20539;-85
2023/07/08 05:24:43;;;;;;;2.45;2.05;;;;;;;;;;5064924;28;20024;-83
2023/07/08 05:27:09;;;;;;;2.80;1.73;;;;;;;;;;5084681;28;20032;-83
2023/07/08 05:29:34;;;;;;;2.20;1.45;;;;;;;;;;5079858;28;20027;-84
2023/07/08 05:32:00;;;;;;;1.83;1.40;;;;;;;;;;5091762;28;20028;-85
2023/07/08 05:34:25;;;;;;;2.15;1.70;;;;;;;;;;5082923;28;20108;-86
2023/07/08 05:36:50;;;;;;;2.50;1.48;;;;;;;;;;5071285;28;20476;-87
2023/07/08 05:39:16;;;;;;;3.17;2.15;;;;;;;;;;5086252;28;20032;-86
2023/07/08 05:41:41;;;;;;;2.75;1.60;;;;;;;;;;5083141;28;20055;-86
2023/07/08 05:44:07;;;;;;;1.98;1.35;;;;;;;;;;5069788;28;20406;-86
2023/07/08 05:46:32;;;;;;;2.42;2.10;;;;;;;;;;5084669;28;20040;-85
2023/07/08 05:48:58;;;;;;;1.15;1.05;;;;;;;;;;5100574;28;20383;-84
2023/07/08 05:51:23;;;;;;;1.30;1.20;;;;;;;;;;5083688;28;20472;-87
2023/07/08 05:53:49;;;;;;;3.38;1.65;;;;;;;;;;5083262;28;20032;-86
2023/07/08 05:56:14;;;;;;;2.03;1.63;;;;;;;;;;5067918;28;20020;-89
2023/07/08 05:58:40;;;;;;;1.88;1.27;;;;;;;;;;5090150;28;20035;-90
2023/07/08 06:01:05;;;;;;;2.00;1.58;;;;;;;;;;5082721;28;20021;-86
2023/07/08 06:03:31;;;;;;;1.45;1.25;;;;;;;;;;5066956;28;20062;-86
2023/07/08 06:05:56;;;;;;;2.47;1.45;;;;;;;;;;5089451;28;20398;-90
2023/07/08 06:08:22;;;;;;;0.93;0.80;;;;;;;;;;5065547;28;20016;-88
2023/07/08 06:10:47;;;;;;;4.05;2.05;;;;;;;;;;5066489;28;20070;-87
2023/07/08 06:13:13;;;;;;;1.85;1.63;;;;;;;;;;5066768;28;20025;-90
2023/07/08 06:15:39;;;;;;;2.03;1.08;;;;;;;;;;5083383;28;20024;-87
2023/07/08 06:18:05;;;;;;;1.45;0.95;;;;;;;;;;5068261;28;20036;-83
2023/07/08 06:20:30;;;;;;;2.33;1.30;;;;;;;;;;5092468;28;20027;-89
2023/07/08 06:22:56;;;;;;;2.30;1.05;;;;;;;;;;5071434;28;20120;-88
2023/07/08 06:25:22;;;;;;;1.42;1.00;;;;;;;;;;5071472;28;20482;-88
2023/07/08 06:27:47;;;;;;;1.77;1.27;;;;;;;;;;5086459;28;20051;-91
2023/07/08 06:30:13;;;;;;;3.15;1.38;;;;;;;;;;5064514;28;20029;-89
2023/07/08 06:32:38;;;;;;;2.58;1.33;;;;;;;;;;5085674;28;20078;-90
2023/07/08 06:35:04;;;;;;;2.15;1.52;;;;;;;;;;5077288;28;20103;-88
2023/07/08 06:37:30;;;;;;;1.20;0.93;;;;;;;;;;5085796;28;20037;-90
2023/07/08 06:39:55;;;;;;;1.35;1.08;;;;;;;;;;5089607;28;20044;-87
2023/07/08 06:42:20;;;;;;;2.17;1.63;;;;;;;;;;5067003;28;20024;-90
2023/07/08 06:44:50;;;;;;;2.45;1.30;;;;;;;;;;5090333;28;20016;-89
2023/07/08 06:47:20;;;;;;;1.33;0.88;;;;;;;;;;5072374;28;20040;-91
2023/07/08 06:49:46;;;;;;;0.98;0.90;;;;;;;;;;5081454;28;20102;-88
2023/07/08 06:52:14;;;;;;;1.20;1.10;;;;;;;;;;5081492;28;20462;-86
2023/07/08 06:54:41;;;;;;;0.73;0.63;;;;;;;;;;5066904;28;20024;-89
2023/07/08 06:57:06;;;;;;;2.08;1.08;;;;;;;;;;5088271;28;20031;-88
2023/07/08 06:59:34;;;;;;;2.67;1.77;;;;;;;;;;5067628;28;20107;-90
2023/07/08 07:01:59;;;;;;;2.10;1.42;;;;;;;;;;5087020;28;20077;-89
2023/07/08 07:04:24;;;;;;;2.67;1.48;;;;;;;;;;5062032;28;20016;-89
2023/07/08 07:06:50;;;;;;;2.50;1.52;;;;;;;;;;5084381;28;20028;-86
2023/07/08 07:09:15;;;;;;;1.20;1.10;;;;;;;;;;5088494;28;20059;-88
2023/07/08 07:11:41;;;;;;;1.67;1.20;;;;;;;;;;5079088;28;20036;-90
2023/07/08 07:14:06;;;;;;;2.40;1.83;;;;;;;;;;5064995;28;20024;-86
2023/07/08 07:16:32;;;;;;;2.65;1.50;;;;;;;;;;5086492;28;20040;-90
2023/07/08 07:18:57;;;;;;;2.20;1.77;;;;;;;;;;5082867;28;20107;-86
2023/07/08 07:21:22;;;;;;;1.70;1.35;;;;;;;;;;5080505;28;20028;-90
2023/07/08 07:23:48;;;;;;;2.05;1.35;;;;;;;;;;5091230;28;20032;-88
2023/07/08 07:26:17;;;;;;;1.83;1.45;;;;;;;;;;5073029;28;20039;-87
2023/07/08 07:28:45;;;;;;;1.45;1.23;;;;;;;;;;5068954;28;20495;-86
2023/07/08 07:31:11;;;;;;;2.90;1.70;;;;;;;;;;5068307;28;20388;-90
2023/07/08 07:33:37;;;;;;;2.85;2.05;;;;;;;;;;5071500;28;20024;-88
2023/07/08 07:36:03;;;;;;;2.47;1.92;;;;;;;;;;5075160;28;20024;-89
2023/07/08 07:38:29;;;;;;;2.22;1.50;;;;;;;;;;5089004;28;20035;-86
2023/07/08 07:40:55;;;;;;;2.53;2.03;;;;;;;;;;5075792;28;20048;-86
2023/07/08 07:43:21;;;;;;;3.67;1.83;;;;;;;;;;5074264;28;20024;-85
2023/07/08 07:45:53;;;;;;;2.00;1.58;;;;;;;;;;5076806;28;20041;-84
2023/07/08 07:48:19;;;;;;;5.28;1.45;;;;;;;;;;5095074;28;20106;-85
2023/07/08 07:50:49;;;;;;;2.22;1.35;;;;;;;;;;5071493;28;20032;-83
2023/07/08 07:53:15;;;;;;;3.45;2.05;;;;;;;;;;5089057;28;20052;-85
2023/07/08 07:55:40;;;;;;;2.28;1.38;;;;;;;;;;5094986;28;20074;-84
2023/07/08 07:58:07;;;;;;;1.85;1.17;;;;;;;;;;5093645;28;20108;-85
2023/07/08 08:00:33;;;;;;;2.17;1.60;;;;;;;;;;5095326;28;20024;-88
2023/07/08 08:02:59;;;;;;;0.98;0.93;;;;;;;;;;5088931;28;20439;-85
2023/07/08 08:05:24;;;;;;;2.28;1.30;;;;;;;;;;5091776;28;20028;-85
2023/07/08 08:07:50;;;;;;;1.88;1.63;;;;;;;;;;5069047;28;20114;-85
2023/07/08 08:10:15;;;;;;;2.45;1.65;;;;;;;;;;5087184;28;20033;-85
2023/07/08 08:12:41;;;;;;;1.88;1.45;;;;;;;;;;5086660;28;20153;-86
2023/07/08 08:15:07;;;;;;;1.25;1.15;;;;;;;;;;5076475;28;20035;-85
2023/07/08 08:17:33;;;;;;;0.95;0.95;;;;;;;;;;5087898;28;20040;-84
2023/07/08 08:19:58;;;;;;;1.40;1.20;;;;;;;;;;5080661;28;20032;-84
2023/07/08 08:22:23;;;;;;;1.85;1.50;;;;;;;;;;5076717;28;20036;-84
2023/07/08 08:24:49;;;;;;;3.35;1.42;;;;;;;;;;5087174;28;20028;-84
2023/07/08 08:27:15;;;;;;;1.88;1.42;;;;;;;;;;5090506;28;20019;-87
2023/07/08 08:29:40;;;;;;;1.63;1.00;;;;;;;;;;5092281;28;20102;-87
2023/07/08 08:32:06;;;;;;;3.45;1.48;;;;;;;;;;5091486;28;20028;-87
2023/07/08 08:34:32;;;;;;;2.08;1.30;;;;;;;;;;5067960;28;20058;-84
2023/07/08 08:36:58;;;;;;;2.13;1.50;;;;;;;;;;5066478;28;20028;-84
2023/07/08 08:39:26;;;;;;;1.90;1.73;;;;;;;;;;5067575;28;20056;-84
2023/07/08 08:41:55;;;;;;;1.67;1.45;;;;;;;;;;5091884;28;20532;-86
2023/07/08 08:44:34;;;;;;;1.60;1.02;;;;;;;;;;5071654;28;20031;-85
2023/07/08 08:47:05;;;;;;;1.08;0.90;;;;;;;;;;5085561;28;20044;-85
2023/07/08 08:49:37;;;;;;;1.17;1.00;;;;;;;;;;5092323;28;20089;-85
2023/07/08 08:52:03;;;;;;;2.85;1.67;;;;;;;;;;5086419;28;20024;-83
2023/07/08 08:54:29;;;;;;;1.52;1.20;;;;;;;;;;5086888;28;20032;-84
2023/07/08 08:57:19;;;;;;;2.30;1.48;;;;;;;;;;5085728;28;20417;-84
2023/07/08 08:59:52;;;;;;;1.45;1.25;;;;;;;;;;5072763;28;20031;-86
2023/07/08 09:02:30;;;;;;;1.60;1.42;;;;;;;;;;5093011;28;20466;-84
2023/07/08 09:05:13;;;;;;;1.20;0.98;;;;;;;;;;5068155;28;20545;-83
2023/07/08 09:08:13;;;;;;;3.00;1.73;;;;;;;;;;5085369;28;20106;-85
2023/07/08 09:11:04;;;;;;;1.02;0.93;;;;;;;;;;5088162;28;20538;-84
2023/07/08 09:13:37;;;;;;;1.15;0.77;;;;;;;;;;5077693;28;20028;-86
2023/07/08 09:16:25;;;;;;;1.65;1.15;;;;;;;;;;5087169;28;20031;-89
2023/07/08 09:19:04;;;;;;;3.40;1.50;;;;;;;;;;5087861;28;20105;-85
2023/07/08 09:21:37;;;;;;;1.40;0.93;;;;;;;;;;5067354;28;20024;-86
2023/07/08 09:24:10;;;;;;;3.17;1.55;;;;;;;;;;5088247;28;20024;-86
2023/07/08 09:26:36;;;;;;;1.70;1.30;;;;;;;;;;5087640;28;20020;-86
2023/07/08 09:29:07;;;;;;;1.02;0.93;;;;;;;;;;5085061;28;20030;-85
2023/07/08 09:31:38;;;;;;;1.88;1.38;;;;;;;;;;5086180;28;20036;-87
2023/07/08 09:34:13;;;;;;;1.13;0.88;;;;;;;;;;5083586;28;20032;-87
2023/07/08 09:36:42;;;;;;;1.38;1.27;;;;;;;;;;5087869;28;20464;-86
2023/07/08 09:39:11;;;;;;;2.20;1.42;;;;;;;;;;5065690;28;20028;-86
2023/07/08 09:41:38;;;;;;;2.03;1.23;;;;;;;;;;5088551;28;20048;-86
2023/07/08 09:44:33;;;;;;;1.45;1.10;;;;;;;;;;5066364;28;20032;-86
2023/07/08 09:46:58;;;;;;;2.45;1.42;;;;;;;;;;5089992;28;20796;-89
2023/07/08 09:49:29;;;;;;;2.42;1.15;;;;;;;;;;5065618;28;20082;-86
2023/07/08 09:51:54;;;;;;;1.73;1.30;;;;;;;;;;5067402;28;20020;-87
2023/07/08 09:54:22;;;;;;;1.75;1.25;;;;;;;;;;5096137;28;20365;-86
2023/07/08 09:57:13;;;;;;;1.88;1.05;;;;;;;;;;5086001;28;20021;-87
2023/07/08 10:00:40;;;;;;;;;;;;;;;;;;;;;
2023/07/08 10:03:31;;;;;;;0.85;0.77;;;;;;;;;;5072559;28;20386;-83
2023/07/08 10:06:19;;;;;;;1.90;1.15;;;;;;;;;;5088547;28;20380;-87
2023/07/08 10:08:48;;;;;;;1.15;0.95;;;;;;;;;;5065237;28;20032;-87
2023/07/08 10:11:31;;;;;;;1.20;0.88;;;;;;;;;;5085136;28;20043;-82
2023/07/08 10:14:35;;;;;;;1.63;1.30;;;;;;;;;;5066361;28;20024;-85
2023/07/08 10:17:22;;;;;;;2.40;1.40;;;;;;;;;;4953770;28;20442;-87
2023/07/08 10:20:11;;;;;;;1.75;1.00;;;;;;;;;;5067788;28;20059;-88
2023/07/08 10:23:35;;;;;;;2.53;2.00;;;;;;;;;;5071284;28;20024;-83
2023/07/08 10:26:47;;;;;;;1.40;0.93;;;;;;;;;;4991841;28;20037;-86
2023/07/08 10:29:44;;;;;;;;;;;;;;;;;;;;;
2023/07/08 10:32:52;;;;;;;0.60;0.60;;;;;;;;;;4988804;28;20525;-84
2023/07/08 10:35:24;;;;;;;1.63;0.75;;;;;;;;;;5020476;28;20036;-81
2023/07/08 10:38:14;;;;;;;1.08;0.80;;;;;;;;;;5068569;28;20028;-86
2023/07/08 10:40:46;;;;;;;0.68;0.60;;;;;;;;;;5070605;28;20511;-86
2023/07/08 10:43:33;;;;;;;0.73;0.73;;;;;;;;;;5081727;28;20067;-91
2023/07/08 10:46:18;;;;;;;0.82;0.68;;;;;;;;;;5065609;28;20036;-87
2023/07/08 10:49:19;;;;;;;0.82;0.73;;;;;;;;;;5090212;28;20035;-86
2023/07/08 10:52:02;;;;;;;1.20;1.13;;;;;;;;;;5073242;28;20028;-88
2023/07/08 10:54:56;;;;;;;0.60;0.60;;;;;;;;;;5089635;28;20133;-89
2023/07/08 10:58:09;;;;;;;1.05;0.73;;;;;;;;;;5070481;28;20028;-88
2023/07/08 11:00:39;;;;;;;0.63;0.63;;;;;;;;;;5088414;28;20056;-87
2023/07/08 11:03:33;;;;;;;1.27;0.80;;;;;;;;;;5074421;28;20525;-86
2023/07/08 11:06:14;;;;;;;1.77;0.90;;;;;;;;;;5085826;28;20111;-89
2023/07/08 11:08:55;;;;;;;1.25;0.90;;;;;;;;;;5073134;28;20020;-91
2023/07/08 11:11:42;;;;;;;1.17;1.08;;;;;;;;;;5077679;28;20024;-92
2023/07/08 11:14:13;;;;;;;0.80;0.65;;;;;;;;;;5089214;28;20032;-88
2023/07/08 11:16:50;;;;;;;0.75;0.75;;;;;;;;;;5071134;28;20896;-90
2023/07/08 11:19:23;;;;;;;0.95;0.85;;;;;;;;;;5099047;28;20032;-85
2023/07/08 11:21:57;;;;;;;1.85;1.13;;;;;;;;;;5096661;28;20020;-90
2023/07/08 11:24:51;;;;;;;1.73;0.98;;;;;;;;;;5090976;28;20422;-86
2023/07/08 11:27:27;;;;;;;1.20;0.93;;;;;;;;;;5092041;28;20043;-87
2023/07/08 11:30:15;;;;;;;1.17;0.85;;;;;;;;;;5088561;28;20021;-88
2023/07/08 11:32:43;;;;;;;1.30;0.90;;;;;;;;;;5093949;28;20026;-85
2023/07/08 11:35:27;;;;;;;1.83;1.30;;;;;;;;;;5070301;28;20028;-85
2023/07/08 11:37:53;;;;;;;0.95;0.77;;;;;;;;;;5091086;28;20024;-88
2023/07/08 11:40:22;;;;;;;1.63;1.25;;;;;;;;;;5075456;28;20027;-83
2023/07/08 11:42:50;;;;;;;1.45;1.00;;;;;;;;;;5091660;28;20023;-82
2023/07/08 11:45:18;;;;;;;2.33;1.48;;;;;;;;;;5083527;28;20033;-86
2023/07/08 11:47:50;;;;;;;1.00;0.90;;;;;;;;;;5067644;28;20028;-83
2023/07/08 11:50:30;;;;;;;0.82;0.77;;;;;;;;;;5071152;28;20032;-84
2023/07/08 11:53:01;;;;;;;2.78;1.00;;;;;;;;;;5089356;28;20020;-84
2023/07/08 11:55:47;;;;;;;1.25;1.02;;;;;;;;;;5086455;28;20027;-83
2023/07/08 11:58:50;;;;;;;1.88;1.15;;;;;;;;;;5083536;28;20031;-83
2023/07/08 12:01:17;;;;;;;0.80;0.80;;;;;;;;;;5070802;28;20073;-84
2023/07/08 12:03:51;;;;;;;1.35;1.05;;;;;;;;;;5089852;28;20036;-87
2023/07/08 12:06:25;;;;;;;1.50;0.98;;;;;;;;;;5069589;28;20028;-84
2023/07/08 12:08:56;;;;;;;1.17;0.82;;;;;;;;;;5068236;28;20017;-83
2023/07/08 12:11:30;;;;;;;0.93;0.70;;;;;;;;;;5066863;28;20039;-85
2023/07/08 12:13:58;;;;;;;1.42;0.98;;;;;;;;;;5084526;28;20024;-84
2023/07/08 12:16:25;;;;;;;1.45;0.95;;;;;;;;;;5083455;28;20066;-84
2023/07/08 12:18:52;;;;;;;1.73;1.23;;;;;;;;;;5067861;28;20130;-87
2023/07/08 12:21:18;;;;;;;0.80;0.80;;;;;;;;;;5071497;28;20027;-86
2023/07/08 12:23:47;;;;;;;1.75;1.23;;;;;;;;;;5071024;28;20024;-84
2023/07/08 12:26:15;;;;;;;1.52;1.20;;;;;;;;;;5084417;28;20425;-84
2023/07/08 12:28:41;;;;;;;1.52;0.90;;;;;;;;;;5083055;28;20032;-85
2023/07/08 12:31:19;;;;;;;0.98;0.80;;;;;;;;;;5089817;28;20039;-82
2023/07/08 12:33:45;;;;;;;1.10;0.88;;;;;;;;;;5083183;28;20029;-82
2023/07/08 12:36:16;;;;;;;0.90;0.80;;;;;;;;;;5062790;28;20024;-82
2023/07/08 12:38:45;;;;;;;0.68;0.68;;;;;;;;;;5069796;28;20020;-82
2023/07/08 12:41:15;;;;;;;1.35;0.80;;;;;;;;;;5081126;28;20063;-80
2023/07/08 12:43:40;;;;;;;1.00;0.90;;;;;;;;;;5085271;28;20027;-81
2023/07/08 12:46:09;;;;;;;1.15;1.05;;;;;;;;;;5093814;28;20201;-81
2023/07/08 12:48:36;;;;;;;0.68;0.63;;;;;;;;;;5085072;28;20076;-83
2023/07/08 12:51:09;;;;;;;1.80;0.98;;;;;;;;;;5087393;28;20039;-81
2023/07/08 12:53:35;;;;;;;0.65;0.60;;;;;;;;;;5082252;28;20025;-84
2023/07/08 12:56:01;;;;;;;0.57;0.50;;;;;;;;;;5084770;28;20034;-84
2023/07/08 12:58:30;;;;;;;1.25;0.63;;;;;;;;;;5066953;28;20040;-81
2023/07/08 13:00:58;;;;;;;0.90;0.63;;;;;;;;;;5085365;28;20392;-82
2023/07/08 13:03:27;;;;;;;1.40;1.00;;;;;;;;;;5085437;28;20028;-85
2023/07/08 13:05:54;;;;;;;2.70;1.77;;;;;;;;;;5067497;28;20020;-87
2023/07/08 13:08:24;;;;;;;1.55;1.10;;;;;;;;;;5067025;28;20369;-89
2023/07/08 13:10:54;;;;;;;2.58;1.27;;;;;;;;;;5079789;28;20031;-85
2023/07/08 13:13:23;;;;;;;1.52;0.85;;;;;;;;;;5071082;28;20019;-86
2023/07/08 13:15:49;;;;;;;1.05;0.82;;;;;;;;;;5081355;28;20454;-84
2023/07/08 13:18:16;;;;;;;0.88;0.88;;;;;;;;;;5072564;28;20480;-88
2023/07/08 13:20:51;;;;;;;0.95;0.80;;;;;;;;;;5086312;28;20024;-86
2023/07/08 13:23:17;;;;;;;1.10;0.80;;;;;;;;;;5085016;28;20059;-87
2023/07/08 13:25:44;;;;;;;1.00;0.80;;;;;;;;;;5083658;28;20063;-86
2023/07/08 13:28:41;;;;;;;0.57;0.57;;;;;;;;;;5075596;28;20024;-84
2023/07/08 13:31:34;;;;;;;0.60;0.60;;;;;;;;;;5084364;28;20028;-86
2023/07/08 13:34:15;;;;;;;0.60;0.60;;;;;;;;;;5072422;28;20063;-86
2023/07/08 13:36:43;;;;;;;2.10;1.00;;;;;;;;;;5085070;28;20463;-85
2023/07/08 13:39:14;;;;;;;0.73;0.63;;;;;;;;;;5083407;28;20511;-83
2023/07/08 13:41:43;;;;;;;1.42;0.88;;;;;;;;;;5086850;28;20012;-81
2023/07/08 13:44:09;;;;;;;2.17;1.30;;;;;;;;;;5086915;28;20561;-87
2023/07/08 13:46:39;;;;;;;1.45;1.02;;;;;;;;;;5082129;28;20056;-88
2023/07/08 13:49:24;;;;;;;2.05;1.33;;;;;;;;;;5089855;28;20107;-88
2023/07/08 13:51:52;;;;;;;1.55;0.95;;;;;;;;;;5066305;28;20056;-85
2023/07/08 13:54:34;;;;;;;4.22;0.90;;;;;;;;;;5084673;28;20028;-84
2023/07/08 13:57:02;;;;;;;3.85;0.80;;;;;;;;;;5066604;28;20043;-84
2023/07/08 13:59:28;;;;;;;1.08;0.95;;;;;;;;;;5084285;28;20024;-83
2023/07/08 14:01:56;;;;;;;0.82;0.57;;;;;;;;;;5084287;28;20471;-84
2023/07/08 14:04:35;;;;;;;1.00;0.80;;;;;;;;;;5078931;28;20071;-81
2023/07/08 14:07:00;;;;;;;1.10;1.00;;;;;;;;;;5076049;28;20292;-82
2023/07/08 14:09:26;;;;;;;2.20;1.13;;;;;;;;;;5079954;28;20427;-81
2023/07/08 14:11:52;;;;;;;1.85;0.80;;;;;;;;;;5082683;28;20107;-82
2023/07/08 14:14:18;;;;;;;1.05;0.80;;;;;;;;;;5066166;28;20513;-81
2023/07/08 14:16:54;;;;;;;1.17;0.82;;;;;;;;;;5085664;28;20023;-82
2023/07/08 14:19:25;;;;;;;0.88;0.60;;;;;;;;;;5083803;28;20522;-80
2023/07/08 14:21:56;;;;;;;1.52;0.70;;;;;;;;;;5064202;28;20024;-81
2023/07/08 14:24:22;;;;;;;1.42;1.02;;;;;;;;;;5083784;28;21271;-81
2023/07/08 14:26:47;;;;;;;0.68;0.68;;;;;;;;;;5079763;28;20103;-82
2023/07/08 14:29:13;;;;;;;2.95;1.15;;;;;;;;;;5062187;28;20037;-80
2023/07/08 14:31:40;;;;;;;1.50;0.90;;;;;;;;;;5088758;28;20055;-84
2023/07/08 14:34:07;;;;;;;17.95;8.18;;;;;;;;;;5088164;28;20375;-82
2023/07/08 14:36:33;;;;;;;12.02;6.75;;;;;;;;;;5069473;28;20038;-83
2023/07/08 14:38:58;;;;;;;0.70;0.70;;;;;;;;;;5073134;28;20391;-82
2023/07/08 14:41:25;;;;;;;1.70;1.02;;;;;;;;;;5086359;28;20021;-83
2023/07/08 14:43:51;;;;;;;0.95;0.80;;;;;;;;;;5070825;28;20028;-83
2023/07/08 14:46:16;;;;;;;1.67;0.57;;;;;;;;;;5064185;28;20068;-81
2023/07/08 14:48:42;;;;;;;1.17;0.63;;;;;;;;;;5069033;28;20028;-83
2023/07/08 14:51:07;;;;;;;0.82;0.60;;;;;;;;;;5063876;28;20052;-83
2023/07/08 14:53:33;;;;;;;1.67;1.00;;;;;;;;;;5066372;28;20032;-84
2023/07/08 14:56:04;;;;;;;0.60;0.47;;;;;;;;;;5061497;28;20032;-86
2023/07/08 14:58:33;;;;;;;1.27;1.00;;;;;;;;;;5074416;28;20045;-82
2023/07/08 15:01:02;;;;;;;0.85;0.68;;;;;;;;;;5066697;28;20024;-89
2023/07/08 15:03:28;;;;;;;2.22;0.90;;;;;;;;;;5065659;28;20032;-87
2023/07/08 15:05:54;;;;;;;0.60;0.60;;;;;;;;;;5067350;28;20039;-86